createdAt,value
2023-02-26T00:01:34.052Z,37.53
2023-02-26T00:04:04.079Z,36.66
2023-02-26T00:06:34.233Z,37.20
2023-02-26T00:09:03.862Z,36.67
2023-02-26T00:11:32.238Z,36.65
2023-02-26T00:14:00.586Z,36.80
2023-02-26T00:16:31.046Z,37.48
2023-02-26T00:19:00.930Z,37.31
2023-02-26T00:21:30.607Z,38.05
2023-02-26T00:23:58.731Z,37.50
2023-02-26T00:26:29.167Z,37.38
2023-02-26T00:28:57.772Z,37.88
2023-02-26T00:31:26.390Z,37.28
2023-02-26T00:33:55.823Z,36.84
2023-02-26T00:36:26.410Z,36.98
2023-02-26T00:39:08.022Z,36.57
2023-02-26T00:41:38.845Z,37.52
2023-02-26T00:44:07.288Z,37.15
2023-02-26T00:46:42.726Z,36.93
2023-02-26T00:49:19.712Z,37.04
2023-02-26T00:51:52.654Z,37.95
2023-02-26T00:54:23.093Z,37.42
2023-02-26T00:56:54.925Z,37.42
2023-02-26T00:59:23.803Z,36.88
2023-02-26T01:01:52.845Z,36.29
2023-02-26T01:04:23.634Z,38.66
2023-02-26T01:06:53.809Z,38.23
2023-02-26T01:09:26.921Z,38.19
2023-02-26T01:12:01.436Z,38.01
2023-02-26T01:14:29.832Z,37.50
2023-02-26T01:17:04.572Z,37.85
2023-02-26T01:19:40.604Z,36.88
2023-02-26T01:22:14.043Z,36.99
2023-02-26T01:24:42.481Z,36.45
2023-02-26T01:27:12.158Z,36.97
2023-02-26T01:29:40.330Z,37.39
2023-02-26T01:32:13.683Z,37.03
2023-02-26T01:34:47.964Z,36.74
2023-02-26T01:37:28.692Z,37.85
2023-02-26T01:40:17.112Z,37.05
2023-02-26T01:42:52.051Z,38.13
2023-02-26T01:45:25.024Z,37.21
2023-02-26T01:47:58.250Z,36.58
2023-02-26T01:50:29.917Z,38.29
2023-02-26T01:53:24.267Z,36.66
2023-02-26T01:55:56.436Z,37.50
2023-02-26T01:58:29.168Z,36.33
2023-02-26T02:00:56.991Z,36.96
2023-02-26T02:03:27.873Z,36.53
2023-02-26T02:05:59.579Z,36.68
2023-02-26T02:08:27.579Z,36.54
2023-02-26T02:10:55.725Z,36.79
2023-02-26T02:13:38.951Z,35.92
2023-02-26T02:16:18.742Z,35.87
2023-02-26T02:18:55.151Z,36.34
2023-02-26T02:21:46.284Z,36.50
2023-02-26T02:24:17.816Z,35.88
2023-02-26T02:26:55.773Z,35.19
2023-02-26T02:30:04.677Z,35.19
2023-02-26T02:32:39.354Z,35.46
2023-02-26T02:35:14.245Z,35.61
2023-02-26T02:37:47.752Z,36.23
2023-02-26T02:40:19.280Z,35.96
2023-02-26T02:42:59.739Z,35.07
2023-02-26T02:45:32.435Z,35.32
2023-02-26T02:48:07.343Z,35.32
2023-02-26T02:50:39.325Z,35.12
2023-02-26T02:53:13.833Z,35.63
2023-02-26T02:55:47.526Z,35.25
2023-02-26T02:58:19.421Z,35.46
2023-02-26T03:00:50.877Z,36.61
2023-02-26T03:03:27.223Z,35.25
2023-02-26T03:05:56.260Z,35.19
2023-02-26T03:08:28.201Z,36.32
2023-02-26T03:10:56.195Z,35.78
2023-02-26T03:13:25.757Z,36.44
2023-02-26T03:16:15.822Z,35.96
2023-02-26T03:18:54.783Z,35.75
2023-02-26T03:21:29.877Z,36.12
2023-02-26T03:24:02.723Z,36.16
2023-02-26T03:26:35.522Z,35.56
2023-02-26T03:29:10.604Z,35.78
2023-02-26T03:31:45.209Z,35.10
2023-02-26T03:34:19.769Z,34.97
2023-02-26T03:36:52.710Z,35.14
2023-02-26T03:39:30.382Z,35.16
2023-02-26T03:42:02.977Z,35.36
2023-02-26T03:44:41.152Z,35.11
2023-02-26T03:47:13.759Z,36.15
2023-02-26T03:49:47.082Z,36.42
2023-02-26T03:52:16.193Z,36.12
2023-02-26T03:55:20.346Z,35.30
2023-02-26T03:58:08.419Z,35.25
2023-02-26T04:01:00.470Z,35.94
2023-02-26T04:03:34.514Z,35.77
2023-02-26T04:06:04.875Z,35.03
2023-02-26T04:08:32.960Z,35.87
2023-02-26T04:11:09.062Z,35.67
2023-02-26T04:13:37.416Z,35.90
2023-02-26T04:16:05.959Z,35.64
2023-02-26T04:18:34.590Z,35.41
2023-02-26T04:21:04.565Z,35.59
2023-02-26T04:23:32.842Z,35.35
2023-02-26T04:26:00.795Z,36.72
2023-02-26T04:28:30.136Z,35.85
2023-02-26T04:30:58.199Z,35.63
2023-02-26T04:33:26.891Z,36.89
2023-02-26T04:35:54.775Z,37.02
2023-02-26T04:38:24.127Z,35.66
2023-02-26T04:40:52.280Z,35.76
2023-02-26T04:43:21.084Z,36.37
2023-02-26T04:45:59.917Z,36.30
2023-02-26T04:48:27.792Z,36.46
2023-02-26T04:50:55.803Z,37.61
2023-02-26T04:53:25.010Z,35.98
2023-02-26T04:55:52.772Z,37.29
2023-02-26T04:58:20.803Z,36.52
2023-02-26T05:00:50.061Z,35.95
2023-02-26T05:03:18.634Z,36.96
2023-02-26T05:05:47.229Z,36.80
2023-02-26T05:08:15.853Z,35.86
2023-02-26T05:10:44.973Z,36.58
2023-02-26T05:13:12.806Z,36.47
2023-02-26T05:15:40.687Z,36.12
2023-02-26T05:18:08.611Z,36.18
2023-02-26T05:20:37.258Z,36.42
2023-02-26T05:23:05.564Z,36.33
2023-02-26T05:25:33.493Z,36.00
2023-02-26T05:28:02.776Z,36.64
2023-02-26T05:30:30.828Z,37.75
2023-02-26T05:32:58.661Z,37.26
2023-02-26T05:35:26.508Z,37.78
2023-02-26T05:37:54.312Z,37.78
2023-02-26T05:40:23.077Z,38.18
2023-02-26T05:42:51.929Z,38.26
2023-02-26T05:45:21.067Z,37.49
2023-02-26T05:47:48.834Z,37.17
2023-02-26T05:50:16.613Z,36.98
2023-02-26T05:52:44.411Z,36.86
2023-02-26T05:55:12.361Z,36.80
2023-02-26T05:57:40.195Z,37.58
2023-02-26T06:00:10.196Z,38.10
2023-02-26T06:02:42.025Z,37.31
2023-02-26T06:05:10.632Z,37.04
2023-02-26T06:07:38.575Z,36.84
2023-02-26T06:10:08.619Z,36.21
2023-02-26T06:12:36.620Z,36.88
2023-02-26T06:15:05.420Z,38.02
2023-02-26T06:17:33.205Z,37.65
2023-02-26T06:20:02.970Z,37.96
2023-02-26T06:22:30.852Z,37.50
2023-02-26T06:24:58.695Z,37.66
2023-02-26T06:27:26.716Z,36.72
2023-02-26T06:29:54.616Z,36.48
2023-02-26T06:32:22.587Z,37.13
2023-02-26T06:34:50.383Z,37.54
2023-02-26T06:37:19.554Z,37.37
2023-02-26T06:39:47.349Z,37.40
2023-02-26T06:42:15.136Z,36.53
2023-02-26T06:44:42.935Z,36.28
2023-02-26T06:47:10.746Z,36.91
2023-02-26T06:49:38.482Z,37.59
2023-02-26T06:52:06.551Z,37.25
2023-02-26T06:54:35.808Z,36.60
2023-02-26T06:57:03.663Z,35.93
2023-02-26T06:59:31.982Z,37.88
2023-02-26T07:01:59.818Z,37.00
2023-02-26T07:04:27.648Z,36.69
2023-02-26T07:06:55.382Z,36.14
2023-02-26T07:09:23.259Z,36.12
2023-02-26T07:11:52.350Z,36.15
2023-02-26T07:14:20.227Z,36.47
2023-02-26T07:16:48.074Z,34.75
2023-02-26T07:19:18.137Z,35.63
2023-02-26T07:21:45.923Z,34.74
2023-02-26T07:24:13.718Z,34.74
2023-02-26T07:26:41.612Z,35.70
2023-02-26T07:29:10.968Z,34.83
2023-02-26T07:31:39.257Z,35.72
2023-02-26T07:34:07.257Z,35.75
2023-02-26T07:36:35.076Z,35.29
2023-02-26T07:39:03.092Z,35.91
2023-02-26T07:41:30.864Z,35.08
2023-02-26T07:43:58.668Z,35.07
2023-02-26T07:46:28.244Z,35.64
2023-02-26T07:48:56.232Z,34.56
2023-02-26T07:51:24.695Z,33.25
2023-02-26T07:53:52.792Z,34.32
2023-02-26T07:56:20.553Z,34.14
2023-02-26T07:58:48.830Z,34.91
2023-02-26T08:01:16.670Z,35.29
2023-02-26T08:03:45.828Z,34.95
2023-02-26T08:06:14.215Z,35.42
2023-02-26T08:08:42.018Z,34.79
2023-02-26T08:11:09.860Z,34.02
2023-02-26T08:13:37.700Z,33.35
2023-02-26T08:16:05.848Z,34.21
2023-02-26T08:18:33.676Z,34.97
2023-02-26T08:21:02.864Z,34.12
2023-02-26T08:23:30.617Z,33.82
2023-02-26T08:26:02.467Z,33.85
2023-02-26T08:28:30.641Z,33.81
2023-02-26T08:30:58.597Z,33.34
2023-02-26T08:33:26.973Z,32.70
2023-02-26T08:35:55.773Z,33.32
2023-02-26T08:38:24.870Z,33.64
2023-02-26T08:40:53.384Z,33.02
2023-02-26T08:43:21.380Z,32.62
2023-02-26T08:45:49.685Z,33.66
2023-02-26T08:48:17.368Z,33.15
2023-02-26T08:50:45.130Z,33.09
2023-02-26T08:53:12.966Z,33.58
2023-02-26T08:55:41.998Z,33.22
2023-02-26T08:58:09.681Z,32.29
2023-02-26T09:00:37.670Z,32.18
2023-02-26T09:03:05.377Z,31.82
2023-02-26T09:05:33.114Z,31.08
2023-02-26T09:08:00.790Z,32.31
2023-02-26T09:10:28.939Z,31.65
2023-02-26T09:12:58.009Z,31.17
2023-02-26T09:15:26.080Z,32.70
2023-02-26T09:17:55.676Z,32.76
2023-02-26T09:20:23.579Z,31.66
2023-02-26T09:22:51.454Z,32.57
2023-02-26T09:25:19.431Z,31.59
2023-02-26T09:27:47.316Z,31.95
2023-02-26T09:30:17.285Z,31.49
2023-02-26T09:32:45.067Z,31.91
2023-02-26T09:35:12.848Z,31.57
2023-02-26T09:37:40.613Z,32.00
2023-02-26T09:40:14.176Z,31.38
2023-02-26T09:43:00.791Z,32.22
2023-02-26T09:45:34.322Z,31.61
2023-02-26T09:48:05.339Z,31.20
2023-02-26T09:50:41.712Z,31.46
2023-02-26T09:53:19.532Z,30.78
2023-02-26T09:55:50.219Z,30.11
2023-02-26T09:58:29.930Z,30.06
2023-02-26T10:01:07.047Z,29.58
2023-02-26T10:03:49.179Z,29.82
2023-02-26T10:06:24.459Z,29.46
2023-02-26T10:09:13.733Z,30.18
2023-02-26T10:11:49.627Z,29.11
2023-02-26T10:14:24.232Z,28.88
2023-02-26T10:16:58.161Z,29.18
2023-02-26T10:19:30.908Z,28.57
2023-02-26T10:22:03.585Z,28.12
2023-02-26T10:24:43.443Z,28.72
2023-02-26T10:27:17.112Z,28.22
2023-02-26T10:29:52.875Z,28.46
2023-02-26T10:32:29.652Z,27.81
2023-02-26T10:34:59.715Z,28.16
2023-02-26T10:37:37.459Z,28.39
2023-02-26T10:40:13.927Z,28.29
2023-02-26T10:42:47.765Z,26.95
2023-02-26T10:45:28.291Z,27.60
2023-02-26T10:48:18.020Z,27.11
2023-02-26T10:50:50.410Z,25.96
2023-02-26T10:53:18.501Z,26.33
2023-02-26T10:55:51.572Z,27.61
2023-02-26T10:58:22.238Z,26.03
2023-02-26T11:00:54.336Z,25.45
2023-02-26T11:03:33.518Z,25.34
2023-02-26T11:06:03.714Z,25.22
2023-02-26T11:08:35.045Z,25.76
2023-02-26T11:11:05.658Z,22.74
2023-02-26T11:13:35.734Z,20.95
2023-02-26T11:16:06.625Z,18.18
2023-02-26T11:18:41.027Z,17.92
2023-02-26T11:21:10.522Z,16.95
2023-02-26T11:23:39.895Z,16.96
2023-02-26T11:26:15.774Z,16.51
2023-02-26T11:28:46.068Z,17.83
2023-02-26T11:31:18.530Z,18.91
2023-02-26T11:33:51.662Z,17.85
2023-02-26T11:36:24.517Z,19.74
2023-02-26T11:38:56.311Z,19.67
2023-02-26T11:41:25.160Z,21.63
2023-02-26T11:44:02.007Z,23.76
2023-02-26T11:46:30.464Z,23.97
2023-02-26T11:49:02.446Z,24.12
2023-02-26T11:51:30.972Z,23.80
2023-02-26T11:54:01.479Z,23.22
2023-02-26T11:56:34.155Z,21.16
2023-02-26T11:59:09.115Z,19.32
2023-02-26T12:01:37.941Z,18.03
2023-02-26T12:04:12.241Z,18.10
2023-02-26T12:06:40.683Z,19.60
2023-02-26T12:09:12.780Z,19.13
2023-02-26T12:11:52.560Z,21.85
2023-02-26T12:14:40.379Z,20.90
2023-02-26T12:17:22.859Z,19.87
2023-02-26T12:19:58.700Z,19.30
2023-02-26T12:22:46.556Z,19.91
2023-02-26T12:25:29.802Z,19.34
2023-02-26T12:28:36.393Z,19.46
2023-02-26T12:31:30.893Z,17.34
2023-02-26T12:34:09.541Z,18.46
2023-02-26T12:36:56.272Z,18.12
2023-02-26T12:39:44.149Z,18.37
2023-02-26T12:42:25.921Z,18.08
2023-02-26T12:45:13.498Z,19.01
2023-02-26T12:47:52.412Z,19.28
2023-02-26T12:50:33.794Z,19.57
2023-02-26T12:53:39.269Z,19.87
2023-02-26T12:56:39.888Z,19.86
2023-02-26T12:59:21.158Z,20.87
2023-02-26T13:02:32.323Z,19.58
2023-02-26T13:05:24.696Z,18.53
2023-02-26T13:08:04.003Z,17.61
2023-02-26T13:10:45.679Z,15.80
2023-02-26T13:13:31.289Z,16.95
2023-02-26T13:16:11.385Z,17.58
2023-02-26T13:18:47.861Z,18.06
2023-02-26T13:21:20.727Z,19.42
2023-02-26T13:23:53.698Z,18.75
2023-02-26T13:26:24.480Z,20.18
2023-02-26T13:28:57.478Z,19.98
2023-02-26T13:31:32.218Z,19.59
2023-02-26T13:34:05.817Z,20.44
2023-02-26T13:36:35.373Z,22.46
2023-02-26T13:39:21.578Z,21.30
2023-02-26T13:42:03.092Z,20.28
2023-02-26T13:44:38.759Z,19.83
2023-02-26T13:47:32.728Z,19.53
2023-02-26T13:50:18.078Z,18.14
2023-02-26T13:52:52.963Z,16.30
2023-02-26T13:55:41.579Z,16.63
2023-02-26T13:58:31.464Z,20.05
2023-02-26T14:01:05.105Z,19.98
2023-02-26T14:03:36.556Z,19.88
2023-02-26T14:06:24.779Z,18.21
2023-02-26T14:08:56.591Z,17.87
2023-02-26T14:11:46.978Z,17.86
2023-02-26T14:14:30.649Z,17.45
2023-02-26T14:17:20.942Z,15.84
2023-02-26T14:20:20.445Z,17.25
2023-02-26T14:22:51.347Z,18.21
2023-02-26T14:25:28.013Z,19.89
2023-02-26T14:28:21.351Z,20.65
2023-02-26T14:30:53.664Z,15.87
2023-02-26T14:33:30.020Z,15.56
2023-02-26T14:35:59.646Z,16.20
2023-02-26T14:38:30.785Z,15.55
2023-02-26T14:41:04.382Z,14.58
2023-02-26T14:43:37.333Z,17.16
2023-02-26T14:46:09.191Z,18.76
2023-02-26T14:48:37.744Z,18.84
2023-02-26T14:51:19.140Z,17.07
2023-02-26T14:54:07.859Z,18.66
2023-02-26T14:56:53.288Z,19.25
2023-02-26T14:59:44.161Z,19.09
2023-02-26T15:02:26.240Z,14.60
2023-02-26T15:05:15.447Z,12.64
2023-02-26T15:07:55.559Z,12.15
2023-02-26T15:10:38.458Z,11.73
2023-02-26T15:13:33.581Z,12.51
2023-02-26T15:16:12.995Z,13.27
2023-02-26T15:19:15.472Z,13.45
2023-02-26T15:21:54.010Z,14.17
2023-02-26T15:24:21.880Z,14.62
2023-02-26T15:26:54.292Z,14.91
2023-02-26T15:29:29.027Z,15.66
2023-02-26T15:32:01.224Z,17.04
2023-02-26T15:34:32.046Z,17.88
2023-02-26T15:37:00.607Z,18.13
2023-02-26T15:39:28.331Z,19.19
2023-02-26T15:41:57.612Z,19.85
2023-02-26T15:44:28.566Z,18.77
2023-02-26T15:46:59.476Z,18.48
2023-02-26T15:49:31.320Z,19.31
2023-02-26T15:52:02.044Z,19.10
2023-02-26T15:54:41.610Z,19.04
2023-02-26T15:57:10.438Z,20.84
2023-02-26T15:59:43.308Z,21.00
2023-02-26T16:02:13.650Z,21.79
2023-02-26T16:04:43.910Z,21.50
2023-02-26T16:07:13.050Z,21.90
2023-02-26T16:09:42.957Z,22.19
2023-02-26T16:12:16.257Z,21.46
2023-02-26T16:14:48.359Z,21.08
2023-02-26T16:17:24.924Z,21.26
2023-02-26T16:19:56.841Z,22.63
2023-02-26T16:22:28.733Z,22.52
2023-02-26T16:25:00.402Z,22.49
2023-02-26T16:27:30.797Z,22.25
2023-02-26T16:30:00.836Z,21.81
2023-02-26T16:32:31.004Z,22.24
2023-02-26T16:35:08.772Z,21.20
2023-02-26T16:37:37.911Z,20.65
2023-02-26T16:40:18.892Z,21.79
2023-02-26T16:42:53.499Z,21.89
2023-02-26T16:45:26.827Z,22.05
2023-02-26T16:47:57.912Z,22.38
2023-02-26T16:50:30.172Z,22.45
2023-02-26T16:53:02.314Z,22.33
2023-02-26T16:55:32.565Z,22.29
2023-02-26T16:58:04.576Z,22.29
2023-02-26T17:00:36.088Z,22.63
2023-02-26T17:03:11.143Z,22.76
2023-02-26T17:05:43.577Z,22.61
2023-02-26T17:08:17.666Z,22.91
2023-02-26T17:10:49.575Z,22.77
2023-02-26T17:13:19.245Z,23.40
2023-02-26T17:15:49.181Z,23.98
2023-02-26T17:18:17.617Z,23.44
2023-02-26T17:20:47.751Z,24.18
2023-02-26T17:23:18.249Z,23.99
2023-02-26T17:25:50.187Z,23.61
2023-02-26T17:28:23.836Z,24.89
2023-02-26T17:30:51.831Z,24.92
2023-02-26T17:33:20.632Z,25.17
2023-02-26T17:35:50.489Z,25.22
2023-02-26T17:38:18.457Z,25.41
2023-02-26T17:40:48.633Z,25.72
2023-02-26T17:43:16.693Z,25.77
2023-02-26T17:45:44.495Z,25.85
2023-02-26T17:48:14.608Z,25.89
2023-02-26T17:50:47.001Z,25.10
2023-02-26T17:53:17.232Z,26.88
2023-02-26T17:55:46.417Z,25.89
2023-02-26T17:58:17.108Z,25.59
2023-02-26T18:00:49.520Z,26.13
2023-02-26T18:03:17.879Z,25.86
2023-02-26T18:05:45.997Z,25.66
2023-02-26T18:08:22.010Z,26.45
2023-02-26T18:10:49.972Z,26.53
2023-02-26T18:13:18.078Z,26.57
2023-02-26T18:15:46.449Z,25.96
2023-02-26T18:18:15.190Z,27.05
2023-02-26T18:20:43.947Z,26.83
2023-02-26T18:23:13.815Z,26.16
2023-02-26T18:25:44.518Z,27.20
2023-02-26T18:28:16.955Z,27.28
2023-02-26T18:30:45.358Z,26.88
2023-02-26T18:33:16.896Z,26.53
2023-02-26T18:35:47.195Z,26.84
2023-02-26T18:38:16.385Z,26.80
2023-02-26T18:40:46.608Z,26.87
2023-02-26T18:43:14.546Z,27.47
2023-02-26T18:45:43.640Z,26.99
2023-02-26T18:48:12.706Z,27.47
2023-02-26T18:50:40.686Z,27.63
2023-02-26T18:53:08.627Z,27.14
2023-02-26T18:55:37.343Z,26.85
2023-02-26T18:58:06.724Z,27.04
2023-02-26T19:00:35.349Z,28.04
2023-02-26T19:03:03.371Z,27.85
2023-02-26T19:05:31.213Z,28.42
2023-02-26T19:07:59.749Z,27.49
2023-02-26T19:10:29.471Z,27.97
2023-02-26T19:12:57.416Z,28.44
2023-02-26T19:15:26.950Z,28.13
2023-02-26T19:17:54.886Z,27.45
2023-02-26T19:20:22.976Z,27.52
2023-02-26T19:22:50.888Z,28.31
2023-02-26T19:25:24.394Z,28.98
2023-02-26T19:27:53.447Z,28.39
2023-02-26T19:30:21.855Z,28.32
2023-02-26T19:32:51.507Z,28.29
2023-02-26T19:35:19.645Z,29.27
2023-02-26T19:37:47.731Z,29.42
2023-02-26T19:40:17.254Z,28.80
2023-02-26T19:42:45.524Z,29.30
2023-02-26T19:45:14.240Z,29.24
2023-02-26T19:47:42.705Z,28.57
2023-02-26T19:50:14.024Z,27.88
2023-02-26T19:52:42.621Z,28.01
2023-02-26T19:55:11.478Z,27.97
2023-02-26T19:57:39.388Z,28.90
2023-02-26T20:00:08.598Z,28.98
2023-02-26T20:02:42.936Z,28.95
2023-02-26T20:05:16.864Z,29.34
2023-02-26T20:07:45.636Z,28.96
2023-02-26T20:10:15.643Z,28.97
2023-02-26T20:12:43.659Z,29.20
2023-02-26T20:15:12.538Z,29.43
2023-02-26T20:17:40.401Z,29.25
2023-02-26T20:20:09.666Z,29.04
2023-02-26T20:22:38.864Z,29.01
2023-02-26T20:25:07.221Z,28.98
2023-02-26T20:27:36.358Z,28.76
2023-02-26T20:30:04.903Z,30.25
2023-02-26T20:32:32.981Z,30.34
2023-02-26T20:35:01.134Z,29.65
2023-02-26T20:37:28.866Z,30.14
2023-02-26T20:39:58.117Z,30.61
2023-02-26T20:42:25.885Z,31.25
2023-02-26T20:44:53.619Z,31.05
2023-02-26T20:47:21.617Z,29.88
2023-02-26T20:49:49.583Z,29.19
2023-02-26T20:52:17.878Z,30.72
2023-02-26T20:54:45.909Z,29.28
2023-02-26T20:57:15.769Z,30.16
2023-02-26T20:59:43.544Z,30.06
2023-02-26T21:02:12.972Z,32.48
2023-02-26T21:04:40.860Z,31.99
2023-02-26T21:07:17.504Z,31.90
2023-02-26T21:09:48.051Z,32.14
2023-02-26T21:12:17.930Z,33.31
2023-02-26T21:14:46.016Z,33.10
2023-02-26T21:17:13.847Z,32.31
2023-02-26T21:19:41.817Z,32.17
2023-02-26T21:22:09.765Z,32.42
2023-02-26T21:24:37.547Z,33.34
2023-02-26T21:27:05.487Z,32.37
2023-02-26T21:29:34.665Z,33.25
2023-02-26T21:32:03.687Z,32.92
2023-02-26T21:34:34.844Z,34.07
2023-02-26T21:37:03.128Z,33.20
2023-02-26T21:39:32.367Z,33.35
2023-02-26T21:42:00.634Z,34.05
2023-02-26T21:44:28.606Z,33.73
2023-02-26T21:46:58.258Z,33.40
2023-02-26T21:49:26.106Z,32.36
2023-02-26T21:51:54.304Z,33.04
2023-02-26T21:54:22.409Z,32.83
2023-02-26T21:56:50.238Z,32.17
2023-02-26T21:59:18.092Z,32.42
2023-02-26T22:01:45.971Z,32.22
2023-02-26T22:04:15.226Z,34.18
2023-02-26T22:06:44.047Z,34.80
2023-02-26T22:09:11.860Z,34.86
2023-02-26T22:11:39.678Z,34.84
2023-02-26T22:14:07.624Z,34.80
2023-02-26T22:16:35.518Z,34.89
2023-02-26T22:19:03.306Z,33.90
2023-02-26T22:21:32.396Z,33.33
2023-02-26T22:24:02.015Z,33.49
2023-02-26T22:26:30.143Z,33.75
2023-02-26T22:29:00.557Z,34.28
2023-02-26T22:31:29.193Z,34.48
2023-02-26T22:33:57.498Z,34.32
2023-02-26T22:36:25.306Z,33.70
2023-02-26T22:38:54.499Z,33.88
2023-02-26T22:41:22.480Z,34.41
2023-02-26T22:43:53.754Z,35.09
2023-02-26T22:46:24.276Z,34.26
2023-02-26T22:48:52.649Z,34.43
2023-02-26T22:51:20.453Z,33.98
2023-02-26T22:53:49.058Z,34.06
2023-02-26T22:56:18.350Z,34.22
2023-02-26T22:58:46.147Z,33.84
2023-02-26T23:01:13.971Z,33.88
2023-02-26T23:03:41.873Z,33.33
2023-02-26T23:06:09.856Z,33.54
2023-02-26T23:08:37.728Z,33.82
2023-02-26T23:11:06.943Z,33.90
2023-02-26T23:13:38.027Z,34.62
2023-02-26T23:16:09.690Z,34.50
2023-02-26T23:18:39.245Z,35.32
2023-02-26T23:21:08.767Z,35.39
2023-02-26T23:23:36.542Z,35.07
2023-02-26T23:26:04.699Z,33.80
2023-02-26T23:28:32.449Z,35.44
2023-02-26T23:31:01.657Z,36.00
2023-02-26T23:33:29.619Z,35.89
2023-02-26T23:35:57.506Z,36.21
2023-02-26T23:38:25.306Z,35.62
2023-02-26T23:40:53.083Z,35.79
2023-02-26T23:43:20.949Z,36.02
2023-02-26T23:45:48.769Z,36.60
2023-02-26T23:48:17.933Z,36.01
2023-02-26T23:50:45.691Z,36.23
2023-02-26T23:53:13.478Z,36.55
2023-02-26T23:55:41.324Z,35.81
2023-02-26T23:58:09.087Z,35.60
